sensor_id;sensor_type;location;lat;lon;timestamp;P1;durP1;ratioP1;P2;durP2;ratioP2
7795;SDS011;3942;51.518;6.912;2023-05-07T00:00:59;20.10;;;17.23;;
7795;SDS011;3942;51.518;6.912;2023-05-07T00:06:01;23.25;;;16.58;;
7795;SDS011;3942;51.518;6.912;2023-05-07T00:11:03;20.95;;;17.65;;
7795;SDS011;3942;51.518;6.912;2023-05-07T00:16:06;23.52;;;17.08;;
7795;SDS011;3942;51.518;6.912;2023-05-07T00:21:08;22.00;;;18.60;;
7795;SDS011;3942;51.518;6.912;2023-05-07T00:26:10;24.17;;;19.25;;
7795;SDS011;3942;51.518;6.912;2023-05-07T00:31:14;24.83;;;19.58;;
7795;SDS011;3942;51.518;6.912;2023-05-07T00:36:16;25.80;;;19.80;;
7795;SDS011;3942;51.518;6.912;2023-05-07T00:41:18;24.15;;;19.05;;
7795;SDS011;3942;51.518;6.912;2023-05-07T00:46:22;26.05;;;20.08;;
7795;SDS011;3942;51.518;6.912;2023-05-07T00:51:24;24.42;;;19.42;;
7795;SDS011;3942;51.518;6.912;2023-05-07T00:56:27;27.90;;;18.48;;
7795;SDS011;3942;51.518;6.912;2023-05-07T01:01:31;22.02;;;17.92;;
7795;SDS011;3942;51.518;6.912;2023-05-07T01:06:33;23.20;;;17.80;;
7795;SDS011;3942;51.518;6.912;2023-05-07T01:11:35;24.92;;;18.80;;
7795;SDS011;3942;51.518;6.912;2023-05-07T01:16:39;24.23;;;18.70;;
7795;SDS011;3942;51.518;6.912;2023-05-07T01:21:42;23.30;;;17.70;;
7795;SDS011;3942;51.518;6.912;2023-05-07T01:26:48;25.73;;;18.95;;
7795;SDS011;3942;51.518;6.912;2023-05-07T01:31:50;25.42;;;17.83;;
7795;SDS011;3942;51.518;6.912;2023-05-07T01:36:52;24.73;;;18.75;;
7795;SDS011;3942;51.518;6.912;2023-05-07T01:41:56;24.80;;;18.00;;
7795;SDS011;3942;51.518;6.912;2023-05-07T01:46:59;24.15;;;19.92;;
7795;SDS011;3942;51.518;6.912;2023-05-07T01:52:02;26.20;;;19.17;;
7795;SDS011;3942;51.518;6.912;2023-05-07T01:57:06;24.30;;;19.83;;
7795;SDS011;3942;51.518;6.912;2023-05-07T02:02:08;28.20;;;20.63;;
7795;SDS011;3942;51.518;6.912;2023-05-07T02:07:10;28.08;;;21.55;;
7795;SDS011;3942;51.518;6.912;2023-05-07T02:12:13;33.28;;;23.70;;
7795;SDS011;3942;51.518;6.912;2023-05-07T02:17:15;29.50;;;23.45;;
7795;SDS011;3942;51.518;6.912;2023-05-07T02:22:17;35.33;;;24.77;;
7795;SDS011;3942;51.518;6.912;2023-05-07T02:27:21;30.77;;;24.33;;
7795;SDS011;3942;51.518;6.912;2023-05-07T02:32:23;30.88;;;24.02;;
7795;SDS011;3942;51.518;6.912;2023-05-07T02:37:25;33.80;;;25.92;;
7795;SDS011;3942;51.518;6.912;2023-05-07T02:42:28;33.40;;;25.27;;
7795;SDS011;3942;51.518;6.912;2023-05-07T02:47:30;31.42;;;23.92;;
7795;SDS011;3942;51.518;6.912;2023-05-07T02:52:32;34.65;;;24.75;;
7795;SDS011;3942;51.518;6.912;2023-05-07T02:57:36;37.60;;;25.92;;
7795;SDS011;3942;51.518;6.912;2023-05-07T03:02:38;30.77;;;24.45;;
7795;SDS011;3942;51.518;6.912;2023-05-07T03:07:40;30.92;;;25.13;;
7795;SDS011;3942;51.518;6.912;2023-05-07T03:12:46;37.35;;;27.15;;
7795;SDS011;3942;51.518;6.912;2023-05-07T03:17:48;36.83;;;27.05;;
7795;SDS011;3942;51.518;6.912;2023-05-07T03:22:50;32.22;;;26.55;;
7795;SDS011;3942;51.518;6.912;2023-05-07T03:27:54;34.40;;;26.45;;
7795;SDS011;3942;51.518;6.912;2023-05-07T03:32:56;33.50;;;26.90;;
7795;SDS011;3942;51.518;6.912;2023-05-07T03:37:58;35.63;;;27.23;;
7795;SDS011;3942;51.518;6.912;2023-05-07T03:43:01;36.35;;;26.85;;
7795;SDS011;3942;51.518;6.912;2023-05-07T03:48:03;36.13;;;27.75;;
7795;SDS011;3942;51.518;6.912;2023-05-07T03:53:05;36.13;;;28.25;;
7795;SDS011;3942;51.518;6.912;2023-05-07T03:58:08;36.13;;;27.83;;
7795;SDS011;3942;51.518;6.912;2023-05-07T04:03:10;35.88;;;28.30;;
7795;SDS011;3942;51.518;6.912;2023-05-07T04:08:12;36.72;;;27.83;;
7795;SDS011;3942;51.518;6.912;2023-05-07T04:13:15;38.63;;;28.20;;
7795;SDS011;3942;51.518;6.912;2023-05-07T04:18:17;36.63;;;28.00;;
7795;SDS011;3942;51.518;6.912;2023-05-07T04:23:20;39.83;;;28.50;;
7795;SDS011;3942;51.518;6.912;2023-05-07T04:28:23;36.00;;;27.73;;
7795;SDS011;3942;51.518;6.912;2023-05-07T04:33:25;39.63;;;29.13;;
7795;SDS011;3942;51.518;6.912;2023-05-07T04:38:28;40.28;;;28.90;;
7795;SDS011;3942;51.518;6.912;2023-05-07T04:43:32;46.60;;;29.73;;
7795;SDS011;3942;51.518;6.912;2023-05-07T04:48:34;44.65;;;29.38;;
7795;SDS011;3942;51.518;6.912;2023-05-07T04:53:36;46.80;;;30.88;;
7795;SDS011;3942;51.518;6.912;2023-05-07T04:58:40;49.97;;;32.97;;
7795;SDS011;3942;51.518;6.912;2023-05-07T05:03:42;47.60;;;32.28;;
7795;SDS011;3942;51.518;6.912;2023-05-07T05:08:44;48.30;;;31.67;;
7795;SDS011;3942;51.518;6.912;2023-05-07T05:13:47;48.55;;;29.92;;
7795;SDS011;3942;51.518;6.912;2023-05-07T05:18:50;42.67;;;28.95;;
7795;SDS011;3942;51.518;6.912;2023-05-07T05:23:52;49.25;;;31.65;;
7795;SDS011;3942;51.518;6.912;2023-05-07T05:28:55;50.70;;;30.88;;
7795;SDS011;3942;51.518;6.912;2023-05-07T05:33:57;45.45;;;30.70;;
7795;SDS011;3942;51.518;6.912;2023-05-07T05:38:59;43.75;;;28.58;;
7795;SDS011;3942;51.518;6.912;2023-05-07T05:44:02;39.35;;;26.15;;
7795;SDS011;3942;51.518;6.912;2023-05-07T05:49:04;35.25;;;24.88;;
7795;SDS011;3942;51.518;6.912;2023-05-07T05:54:07;30.10;;;22.77;;
7795;SDS011;3942;51.518;6.912;2023-05-07T05:59:10;25.83;;;18.80;;
7795;SDS011;3942;51.518;6.912;2023-05-07T06:04:12;26.50;;;18.98;;
7795;SDS011;3942;51.518;6.912;2023-05-07T06:09:14;25.33;;;18.67;;
7795;SDS011;3942;51.518;6.912;2023-05-07T06:14:18;25.25;;;19.23;;
7795;SDS011;3942;51.518;6.912;2023-05-07T06:19:20;26.13;;;17.70;;
7795;SDS011;3942;51.518;6.912;2023-05-07T06:24:24;20.83;;;14.85;;
7795;SDS011;3942;51.518;6.912;2023-05-07T06:29:27;23.17;;;15.95;;
7795;SDS011;3942;51.518;6.912;2023-05-07T06:34:31;24.48;;;14.20;;
7795;SDS011;3942;51.518;6.912;2023-05-07T06:39:33;24.08;;;15.68;;
7795;SDS011;3942;51.518;6.912;2023-05-07T06:44:37;23.50;;;15.27;;
7795;SDS011;3942;51.518;6.912;2023-05-07T06:49:39;21.63;;;13.68;;
7795;SDS011;3942;51.518;6.912;2023-05-07T06:54:41;16.23;;;11.30;;
7795;SDS011;3942;51.518;6.912;2023-05-07T06:59:44;15.35;;;9.85;;
7795;SDS011;3942;51.518;6.912;2023-05-07T07:04:46;11.73;;;8.00;;
7795;SDS011;3942;51.518;6.912;2023-05-07T07:09:48;10.65;;;7.22;;
7795;SDS011;3942;51.518;6.912;2023-05-07T07:14:53;10.07;;;7.72;;
7795;SDS011;3942;51.518;6.912;2023-05-07T07:19:54;12.68;;;8.25;;
7795;SDS011;3942;51.518;6.912;2023-05-07T07:24:56;10.65;;;7.30;;
7795;SDS011;3942;51.518;6.912;2023-05-07T07:29:59;9.85;;;6.63;;
7795;SDS011;3942;51.518;6.912;2023-05-07T07:35:01;7.78;;;5.88;;
7795;SDS011;3942;51.518;6.912;2023-05-07T07:40:03;10.30;;;5.80;;
7795;SDS011;3942;51.518;6.912;2023-05-07T07:45:08;39.55;;;29.95;;
7795;SDS011;3942;51.518;6.912;2023-05-07T07:50:10;29.45;;;22.83;;
7795;SDS011;3942;51.518;6.912;2023-05-07T07:55:12;9.07;;;6.10;;
7795;SDS011;3942;51.518;6.912;2023-05-07T08:00:19;8.50;;;6.13;;
7795;SDS011;3942;51.518;6.912;2023-05-07T08:05:22;8.43;;;6.03;;
7795;SDS011;3942;51.518;6.912;2023-05-07T08:10:24;7.75;;;5.28;;
7795;SDS011;3942;51.518;6.912;2023-05-07T08:15:27;6.72;;;5.22;;
7795;SDS011;3942;51.518;6.912;2023-05-07T08:20:29;9.23;;;5.10;;
7795;SDS011;3942;51.518;6.912;2023-05-07T08:25:32;9.52;;;5.70;;
7795;SDS011;3942;51.518;6.912;2023-05-07T08:30:35;9.93;;;5.90;;
7795;SDS011;3942;51.518;6.912;2023-05-07T08:35:37;9.60;;;6.25;;
7795;SDS011;3942;51.518;6.912;2023-05-07T08:40:39;11.15;;;6.65;;
7795;SDS011;3942;51.518;6.912;2023-05-07T08:45:43;9.70;;;6.05;;
7795;SDS011;3942;51.518;6.912;2023-05-07T08:50:46;8.45;;;6.28;;
7795;SDS011;3942;51.518;6.912;2023-05-07T08:55:48;11.27;;;6.72;;
7795;SDS011;3942;51.518;6.912;2023-05-07T09:00:52;7.68;;;5.45;;
7795;SDS011;3942;51.518;6.912;2023-05-07T09:05:55;11.70;;;7.55;;
7795;SDS011;3942;51.518;6.912;2023-05-07T09:10:56;8.02;;;4.50;;
7795;SDS011;3942;51.518;6.912;2023-05-07T09:16:01;12.82;;;9.00;;
7795;SDS011;3942;51.518;6.912;2023-05-07T09:21:14;12.68;;;7.50;;
7795;SDS011;3942;51.518;6.912;2023-05-07T09:26:17;9.00;;;6.13;;
7795;SDS011;3942;51.518;6.912;2023-05-07T09:31:21;9.73;;;6.65;;
7795;SDS011;3942;51.518;6.912;2023-05-07T09:36:25;7.80;;;5.68;;
7795;SDS011;3942;51.518;6.912;2023-05-07T09:41:28;10.95;;;6.38;;
7795;SDS011;3942;51.518;6.912;2023-05-07T09:46:33;10.50;;;8.30;;
7795;SDS011;3942;51.518;6.912;2023-05-07T09:51:38;12.77;;;8.90;;
7795;SDS011;3942;51.518;6.912;2023-05-07T09:56:44;12.13;;;8.53;;
7795;SDS011;3942;51.518;6.912;2023-05-07T10:01:48;11.15;;;8.45;;
7795;SDS011;3942;51.518;6.912;2023-05-07T10:06:52;8.98;;;7.03;;
7795;SDS011;3942;51.518;6.912;2023-05-07T10:11:55;16.73;;;7.20;;
7795;SDS011;3942;51.518;6.912;2023-05-07T10:16:59;10.85;;;6.90;;
7795;SDS011;3942;51.518;6.912;2023-05-07T10:22:04;9.40;;;7.78;;
7795;SDS011;3942;51.518;6.912;2023-05-07T10:27:07;11.95;;;7.28;;
7795;SDS011;3942;51.518;6.912;2023-05-07T10:32:19;21.02;;;9.65;;
7795;SDS011;3942;51.518;6.912;2023-05-07T10:37:36;9.15;;;6.72;;
7795;SDS011;3942;51.518;6.912;2023-05-07T10:42:39;13.20;;;7.50;;
7795;SDS011;3942;51.518;6.912;2023-05-07T10:53:24;39.08;;;27.20;;
7795;SDS011;3942;51.518;6.912;2023-05-07T10:58:29;11.60;;;7.80;;
7795;SDS011;3942;51.518;6.912;2023-05-07T11:03:34;14.40;;;10.55;;
7795;SDS011;3942;51.518;6.912;2023-05-07T11:08:54;9.75;;;5.80;;
7795;SDS011;3942;51.518;6.912;2023-05-07T11:13:57;7.13;;;5.18;;
7795;SDS011;3942;51.518;6.912;2023-05-07T11:19:00;5.45;;;4.68;;
7795;SDS011;3942;51.518;6.912;2023-05-07T11:24:02;7.97;;;4.75;;
7795;SDS011;3942;51.518;6.912;2023-05-07T11:29:08;7.80;;;4.32;;
7795;SDS011;3942;51.518;6.912;2023-05-07T11:34:13;6.07;;;4.40;;
7795;SDS011;3942;51.518;6.912;2023-05-07T11:39:26;6.15;;;4.70;;
7795;SDS011;3942;51.518;6.912;2023-05-07T11:44:41;6.43;;;4.20;;
7795;SDS011;3942;51.518;6.912;2023-05-07T11:49:45;7.35;;;4.78;;
7795;SDS011;3942;51.518;6.912;2023-05-07T11:54:51;8.13;;;4.88;;
7795;SDS011;3942;51.518;6.912;2023-05-07T11:59:53;11.82;;;5.03;;
7795;SDS011;3942;51.518;6.912;2023-05-07T12:04:56;6.28;;;4.38;;
7795;SDS011;3942;51.518;6.912;2023-05-07T12:10:04;8.00;;;4.47;;
7795;SDS011;3942;51.518;6.912;2023-05-07T12:15:06;7.13;;;4.90;;
7795;SDS011;3942;51.518;6.912;2023-05-07T12:20:11;4.97;;;3.78;;
7795;SDS011;3942;51.518;6.912;2023-05-07T12:25:14;8.55;;;4.50;;
7795;SDS011;3942;51.518;6.912;2023-05-07T12:30:20;7.95;;;5.05;;
7795;SDS011;3942;51.518;6.912;2023-05-07T12:35:30;9.45;;;4.95;;
7795;SDS011;3942;51.518;6.912;2023-05-07T12:40:36;6.88;;;5.05;;
7795;SDS011;3942;51.518;6.912;2023-05-07T12:45:39;6.50;;;4.32;;
7795;SDS011;3942;51.518;6.912;2023-05-07T12:50:43;6.13;;;4.75;;
7795;SDS011;3942;51.518;6.912;2023-05-07T12:55:46;7.85;;;4.10;;
7795;SDS011;3942;51.518;6.912;2023-05-07T13:00:49;8.95;;;5.45;;
7795;SDS011;3942;51.518;6.912;2023-05-07T13:05:53;7.97;;;5.63;;
7795;SDS011;3942;51.518;6.912;2023-05-07T13:10:56;6.95;;;4.68;;
7795;SDS011;3942;51.518;6.912;2023-05-07T13:16:00;11.32;;;6.07;;
7795;SDS011;3942;51.518;6.912;2023-05-07T13:21:03;11.88;;;7.13;;
7795;SDS011;3942;51.518;6.912;2023-05-07T13:26:05;7.97;;;5.88;;
7795;SDS011;3942;51.518;6.912;2023-05-07T13:31:07;9.80;;;5.97;;
7795;SDS011;3942;51.518;6.912;2023-05-07T13:36:10;9.57;;;6.15;;
7795;SDS011;3942;51.518;6.912;2023-05-07T13:41:12;8.40;;;5.65;;
7795;SDS011;3942;51.518;6.912;2023-05-07T13:46:14;10.02;;;6.18;;
7795;SDS011;3942;51.518;6.912;2023-05-07T13:51:18;8.52;;;6.63;;
7795;SDS011;3942;51.518;6.912;2023-05-07T13:56:20;8.18;;;6.00;;
7795;SDS011;3942;51.518;6.912;2023-05-07T14:01:23;9.15;;;6.78;;
7795;SDS011;3942;51.518;6.912;2023-05-07T14:06:26;11.95;;;6.45;;
7795;SDS011;3942;51.518;6.912;2023-05-07T14:11:28;9.35;;;6.32;;
7795;SDS011;3942;51.518;6.912;2023-05-07T14:16:30;9.77;;;7.07;;
7795;SDS011;3942;51.518;6.912;2023-05-07T14:21:39;9.57;;;6.38;;
7795;SDS011;3942;51.518;6.912;2023-05-07T14:26:41;12.48;;;7.82;;
7795;SDS011;3942;51.518;6.912;2023-05-07T14:31:43;12.82;;;8.57;;
7795;SDS011;3942;51.518;6.912;2023-05-07T14:36:46;15.05;;;9.65;;
7795;SDS011;3942;51.518;6.912;2023-05-07T14:41:48;16.20;;;10.85;;
7795;SDS011;3942;51.518;6.912;2023-05-07T14:46:50;14.50;;;9.98;;
7795;SDS011;3942;51.518;6.912;2023-05-07T14:51:53;14.25;;;10.20;;
7795;SDS011;3942;51.518;6.912;2023-05-07T14:56:56;15.57;;;11.18;;
7795;SDS011;3942;51.518;6.912;2023-05-07T15:01:58;16.00;;;10.65;;
7795;SDS011;3942;51.518;6.912;2023-05-07T15:07:01;16.83;;;10.88;;
7795;SDS011;3942;51.518;6.912;2023-05-07T15:12:03;19.23;;;12.50;;
7795;SDS011;3942;51.518;6.912;2023-05-07T15:17:05;20.85;;;13.30;;
7795;SDS011;3942;51.518;6.912;2023-05-07T15:22:08;13.63;;;10.70;;
7795;SDS011;3942;51.518;6.912;2023-05-07T15:27:11;12.68;;;10.25;;
7795;SDS011;3942;51.518;6.912;2023-05-07T15:32:12;12.90;;;10.38;;
7795;SDS011;3942;51.518;6.912;2023-05-07T15:37:16;16.70;;;11.38;;
7795;SDS011;3942;51.518;6.912;2023-05-07T15:42:18;14.15;;;10.93;;
7795;SDS011;3942;51.518;6.912;2023-05-07T15:47:20;13.27;;;10.27;;
7795;SDS011;3942;51.518;6.912;2023-05-07T15:52:24;13.35;;;9.98;;
7795;SDS011;3942;51.518;6.912;2023-05-07T15:57:26;13.43;;;9.90;;
7795;SDS011;3942;51.518;6.912;2023-05-07T16:02:28;15.65;;;10.88;;
7795;SDS011;3942;51.518;6.912;2023-05-07T16:07:32;19.67;;;12.43;;
7795;SDS011;3942;51.518;6.912;2023-05-07T16:12:33;16.88;;;11.68;;
7795;SDS011;3942;51.518;6.912;2023-05-07T16:17:35;14.88;;;10.68;;
7795;SDS011;3942;51.518;6.912;2023-05-07T16:22:39;16.08;;;11.50;;
7795;SDS011;3942;51.518;6.912;2023-05-07T16:27:41;12.77;;;10.43;;
7795;SDS011;3942;51.518;6.912;2023-05-07T16:32:43;16.02;;;11.18;;
7795;SDS011;3942;51.518;6.912;2023-05-07T16:37:46;17.65;;;12.93;;
7795;SDS011;3942;51.518;6.912;2023-05-07T16:42:48;14.77;;;11.07;;
7795;SDS011;3942;51.518;6.912;2023-05-07T16:47:50;14.98;;;11.60;;
7795;SDS011;3942;51.518;6.912;2023-05-07T16:52:53;14.32;;;11.60;;
7795;SDS011;3942;51.518;6.912;2023-05-07T16:57:54;16.23;;;12.30;;
7795;SDS011;3942;51.518;6.912;2023-05-07T17:02:57;15.52;;;11.68;;
7795;SDS011;3942;51.518;6.912;2023-05-07T17:08:00;15.25;;;12.70;;
7795;SDS011;3942;51.518;6.912;2023-05-07T17:13:02;18.80;;;14.45;;
7795;SDS011;3942;51.518;6.912;2023-05-07T17:18:04;20.55;;;12.23;;
7795;SDS011;3942;51.518;6.912;2023-05-07T17:23:07;15.43;;;10.88;;
7795;SDS011;3942;51.518;6.912;2023-05-07T17:28:09;15.25;;;10.85;;
7795;SDS011;3942;51.518;6.912;2023-05-07T17:33:11;17.75;;;11.90;;
7795;SDS011;3942;51.518;6.912;2023-05-07T17:38:15;17.52;;;12.02;;
7795;SDS011;3942;51.518;6.912;2023-05-07T17:43:17;17.40;;;11.90;;
7795;SDS011;3942;51.518;6.912;2023-05-07T17:48:18;46.60;;;36.33;;
7795;SDS011;3942;51.518;6.912;2023-05-07T17:53:22;14.32;;;11.80;;
7795;SDS011;3942;51.518;6.912;2023-05-07T17:58:23;17.70;;;11.70;;
7795;SDS011;3942;51.518;6.912;2023-05-07T18:03:26;14.82;;;11.10;;
7795;SDS011;3942;51.518;6.912;2023-05-07T18:08:30;18.23;;;12.90;;
7795;SDS011;3942;51.518;6.912;2023-05-07T18:13:34;18.10;;;12.02;;
7795;SDS011;3942;51.518;6.912;2023-05-07T18:18:36;44.03;;;33.60;;
7795;SDS011;3942;51.518;6.912;2023-05-07T18:23:40;19.58;;;14.88;;
7795;SDS011;3942;51.518;6.912;2023-05-07T18:28:42;20.85;;;12.30;;
7795;SDS011;3942;51.518;6.912;2023-05-07T18:33:45;14.52;;;11.02;;
7795;SDS011;3942;51.518;6.912;2023-05-07T18:38:48;12.90;;;10.23;;
7795;SDS011;3942;51.518;6.912;2023-05-07T18:43:51;13.60;;;11.23;;
7795;SDS011;3942;51.518;6.912;2023-05-07T18:48:53;18.23;;;11.18;;
7795;SDS011;3942;51.518;6.912;2023-05-07T18:53:57;11.43;;;10.18;;
7795;SDS011;3942;51.518;6.912;2023-05-07T18:59:01;52.10;;;37.88;;
7795;SDS011;3942;51.518;6.912;2023-05-07T19:04:03;15.80;;;12.02;;
7795;SDS011;3942;51.518;6.912;2023-05-07T19:09:06;16.15;;;12.73;;
7795;SDS011;3942;51.518;6.912;2023-05-07T19:14:08;15.90;;;12.52;;
7795;SDS011;3942;51.518;6.912;2023-05-07T19:19:10;13.93;;;11.48;;
7795;SDS011;3942;51.518;6.912;2023-05-07T19:24:14;17.08;;;12.48;;
7795;SDS011;3942;51.518;6.912;2023-05-07T19:29:16;14.50;;;12.07;;
7795;SDS011;3942;51.518;6.912;2023-05-07T19:34:18;13.57;;;11.32;;
7795;SDS011;3942;51.518;6.912;2023-05-07T19:39:22;16.67;;;11.88;;
7795;SDS011;3942;51.518;6.912;2023-05-07T19:44:24;16.88;;;13.18;;
7795;SDS011;3942;51.518;6.912;2023-05-07T19:49:25;17.52;;;12.93;;
7795;SDS011;3942;51.518;6.912;2023-05-07T19:54:29;15.63;;;12.20;;
7795;SDS011;3942;51.518;6.912;2023-05-07T19:59:30;20.13;;;13.55;;
7795;SDS011;3942;51.518;6.912;2023-05-07T20:04:33;15.30;;;11.65;;
7795;SDS011;3942;51.518;6.912;2023-05-07T20:09:38;16.70;;;11.52;;
7795;SDS011;3942;51.518;6.912;2023-05-07T20:14:40;13.27;;;10.95;;
7795;SDS011;3942;51.518;6.912;2023-05-07T20:19:42;15.02;;;11.45;;
7795;SDS011;3942;51.518;6.912;2023-05-07T20:24:45;15.65;;;11.20;;
7795;SDS011;3942;51.518;6.912;2023-05-07T20:29:47;15.20;;;10.88;;
7795;SDS011;3942;51.518;6.912;2023-05-07T20:34:49;12.10;;;9.77;;
7795;SDS011;3942;51.518;6.912;2023-05-07T20:39:52;13.73;;;9.93;;
7795;SDS011;3942;51.518;6.912;2023-05-07T20:44:54;12.07;;;9.60;;
7795;SDS011;3942;51.518;6.912;2023-05-07T20:49:56;14.98;;;9.70;;
7795;SDS011;3942;51.518;6.912;2023-05-07T20:54:59;11.80;;;9.27;;
7795;SDS011;3942;51.518;6.912;2023-05-07T21:00:01;10.45;;;9.07;;
7795;SDS011;3942;51.518;6.912;2023-05-07T21:05:03;15.15;;;8.57;;
7795;SDS011;3942;51.518;6.912;2023-05-07T21:10:07;10.40;;;7.75;;
7795;SDS011;3942;51.518;6.912;2023-05-07T21:15:10;14.18;;;8.27;;
7795;SDS011;3942;51.518;6.912;2023-05-07T21:20:12;10.35;;;8.90;;
7795;SDS011;3942;51.518;6.912;2023-05-07T21:25:16;13.32;;;9.05;;
7795;SDS011;3942;51.518;6.912;2023-05-07T21:30:18;14.00;;;10.60;;
7795;SDS011;3942;51.518;6.912;2023-05-07T21:35:20;15.32;;;11.57;;
7795;SDS011;3942;51.518;6.912;2023-05-07T21:40:23;14.80;;;12.65;;
7795;SDS011;3942;51.518;6.912;2023-05-07T21:45:25;13.52;;;11.55;;
7795;SDS011;3942;51.518;6.912;2023-05-07T21:50:27;19.92;;;13.60;;
7795;SDS011;3942;51.518;6.912;2023-05-07T21:55:30;23.00;;;14.63;;
7795;SDS011;3942;51.518;6.912;2023-05-07T22:00:32;19.20;;;15.13;;
7795;SDS011;3942;51.518;6.912;2023-05-07T22:05:34;18.15;;;15.13;;
7795;SDS011;3942;51.518;6.912;2023-05-07T22:10:38;25.63;;;16.45;;
7795;SDS011;3942;51.518;6.912;2023-05-07T22:15:40;19.75;;;15.98;;
7795;SDS011;3942;51.518;6.912;2023-05-07T22:20:42;21.33;;;17.10;;
7795;SDS011;3942;51.518;6.912;2023-05-07T22:25:45;22.63;;;16.73;;
7795;SDS011;3942;51.518;6.912;2023-05-07T22:30:48;21.40;;;17.58;;
7795;SDS011;3942;51.518;6.912;2023-05-07T22:35:51;21.17;;;16.92;;
7795;SDS011;3942;51.518;6.912;2023-05-07T22:40:54;24.58;;;16.85;;
7795;SDS011;3942;51.518;6.912;2023-05-07T22:45:56;25.88;;;19.00;;
7795;SDS011;3942;51.518;6.912;2023-05-07T22:50:59;29.10;;;18.75;;
7795;SDS011;3942;51.518;6.912;2023-05-07T22:56:04;23.90;;;19.02;;
7795;SDS011;3942;51.518;6.912;2023-05-07T23:01:10;26.98;;;18.85;;
7795;SDS011;3942;51.518;6.912;2023-05-07T23:06:12;25.48;;;19.85;;
7795;SDS011;3942;51.518;6.912;2023-05-07T23:11:16;27.65;;;20.67;;
7795;SDS011;3942;51.518;6.912;2023-05-07T23:16:18;25.95;;;19.02;;
7795;SDS011;3942;51.518;6.912;2023-05-07T23:21:20;22.73;;;18.50;;
7795;SDS011;3942;51.518;6.912;2023-05-07T23:26:23;24.90;;;19.10;;
7795;SDS011;3942;51.518;6.912;2023-05-07T23:31:27;23.45;;;18.27;;
7795;SDS011;3942;51.518;6.912;2023-05-07T23:36:29;23.40;;;18.52;;
7795;SDS011;3942;51.518;6.912;2023-05-07T23:41:33;23.70;;;19.10;;
7795;SDS011;3942;51.518;6.912;2023-05-07T23:46:35;21.83;;;17.25;;
7795;SDS011;3942;51.518;6.912;2023-05-07T23:51:37;23.50;;;17.27;;
7795;SDS011;3942;51.518;6.912;2023-05-07T23:56:40;22.42;;;17.73;;
